createdAt,value
2022-08-02T00:00:18.464Z,18.34
2022-08-02T00:01:25.259Z,18.32
2022-08-02T00:02:21.947Z,18.3
2022-08-02T00:03:24.455Z,18.26
2022-08-02T00:04:25.393Z,18.25
2022-08-02T00:05:27.171Z,18.23
2022-08-02T00:06:28.954Z,18.2
2022-08-02T00:07:30.644Z,18.18
2022-08-02T00:08:32.533Z,18.16
2022-08-02T00:09:34.079Z,18.15
2022-08-02T00:10:35.826Z,18.12
2022-08-02T00:11:37.695Z,18.11
2022-08-02T00:12:39.394Z,18.08
2022-08-02T00:13:41.030Z,18.06
2022-08-02T00:14:42.832Z,18.04
2022-08-02T00:15:44.614Z,18.02
2022-08-02T00:16:46.242Z,18
2022-08-02T00:17:48.561Z,17.97
2022-08-02T00:18:49.713Z,17.95
2022-08-02T00:19:51.430Z,17.93
2022-08-02T00:20:53.179Z,17.91
2022-08-02T00:21:54.907Z,17.89
2022-08-02T00:22:56.827Z,17.87
2022-08-02T00:24:28.511Z,17.85
2022-08-02T00:25:00.309Z,17.84
2022-08-02T00:26:01.827Z,17.83
2022-08-02T00:27:03.580Z,17.81
2022-08-02T00:28:05.296Z,17.79
2022-08-02T00:29:07.355Z,17.78
2022-08-02T00:30:09.039Z,17.77
2022-08-02T00:31:27.728Z,17.76
2022-08-02T00:32:12.850Z,17.76
2022-08-02T00:33:14.115Z,17.74
2022-08-02T00:34:28.640Z,17.74
2022-08-02T00:35:17.437Z,17.74
2022-08-02T00:36:24.276Z,17.72
2022-08-02T00:37:20.969Z,17.72
2022-08-02T00:38:22.849Z,17.7
2022-08-02T00:39:34.153Z,17.71
2022-08-02T00:40:26.235Z,17.71
2022-08-02T00:41:27.876Z,17.7
2022-08-02T00:42:29.962Z,17.7
2022-08-02T00:43:31.648Z,17.69
2022-08-02T00:44:33.271Z,17.69
2022-08-02T00:46:03.520Z,17.68
2022-08-02T00:46:36.854Z,17.69
2022-08-02T00:47:38.383Z,17.68
2022-08-02T00:48:41.510Z,17.68
2022-08-02T00:49:41.926Z,17.69
2022-08-02T00:50:43.892Z,17.68
2022-08-02T00:51:45.540Z,17.69
2022-08-02T00:52:47.065Z,17.7
2022-08-02T00:53:48.696Z,17.7
2022-08-02T00:54:50.500Z,17.71
2022-08-02T00:55:52.187Z,17.72
2022-08-02T00:56:54.029Z,17.72
2022-08-02T00:57:55.800Z,17.73
2022-08-02T00:58:57.527Z,17.74
2022-08-02T00:59:59.243Z,17.75
2022-08-02T01:01:01.052Z,17.75
2022-08-02T01:02:02.534Z,17.75
2022-08-02T01:03:04.551Z,17.77
2022-08-02T01:04:05.978Z,17.78
2022-08-02T01:05:07.919Z,17.78
2022-08-02T01:06:41.074Z,17.79
2022-08-02T01:07:13.035Z,17.8
2022-08-02T01:08:13.168Z,17.81
2022-08-02T01:09:14.893Z,17.82
2022-08-02T01:10:16.561Z,17.83
2022-08-02T01:11:25.435Z,17.83
2022-08-02T01:12:20.470Z,17.84
2022-08-02T01:13:21.787Z,17.84
2022-08-02T01:14:23.564Z,17.84
2022-08-02T01:15:36.290Z,17.84
2022-08-02T01:16:26.847Z,17.84
2022-08-02T01:17:28.696Z,17.83
2022-08-02T01:18:30.415Z,17.82
2022-08-02T01:19:32.236Z,17.83
2022-08-02T01:20:33.970Z,17.81
2022-08-02T01:21:35.614Z,17.81
2022-08-02T01:23:00.105Z,17.8
2022-08-02T01:23:39.204Z,17.79
2022-08-02T01:24:40.721Z,17.78
2022-08-02T01:25:42.636Z,17.77
2022-08-02T01:26:44.374Z,17.76
2022-08-02T01:27:45.978Z,17.74
2022-08-02T01:28:47.795Z,17.72
2022-08-02T01:29:49.723Z,17.71
2022-08-02T01:30:51.834Z,17.7
2022-08-02T01:31:53.013Z,17.69
2022-08-02T01:32:54.656Z,17.68
2022-08-02T01:33:56.537Z,17.67
2022-08-02T01:34:58.112Z,17.66
2022-08-02T01:36:00.475Z,17.63
2022-08-02T01:37:01.738Z,17.62
2022-08-02T01:38:03.733Z,17.61
2022-08-02T01:39:05.228Z,17.6
2022-08-02T01:40:06.869Z,17.59
2022-08-02T01:41:23.552Z,17.58
2022-08-02T01:42:10.950Z,17.57
2022-08-02T01:43:12.390Z,17.54
2022-08-02T01:44:13.913Z,17.55
2022-08-02T01:45:15.532Z,17.53
2022-08-02T01:46:24.392Z,17.51
2022-08-02T01:47:19.034Z,17.5
2022-08-02T01:48:20.743Z,17.49
2022-08-02T01:49:22.624Z,17.48
2022-08-02T01:50:24.211Z,17.47
2022-08-02T01:51:25.948Z,17.45
2022-08-02T01:52:27.550Z,17.44
2022-08-02T01:53:29.500Z,17.42
2022-08-02T01:54:31.157Z,17.42
2022-08-02T01:55:35.216Z,17.41
2022-08-02T01:56:34.675Z,17.4
2022-08-02T01:57:41.795Z,17.39
2022-08-02T01:58:38.159Z,17.38
2022-08-02T01:59:39.983Z,17.37
2022-08-02T02:00:42.051Z,17.36
2022-08-02T02:01:43.716Z,17.35
2022-08-02T02:02:45.344Z,17.34
2022-08-02T02:03:47.099Z,17.33
2022-08-02T02:04:48.439Z,17.33
2022-08-02T02:05:50.775Z,17.32
2022-08-02T02:06:52.493Z,17.31
2022-08-02T02:07:54.164Z,17.29
2022-08-02T02:08:55.898Z,17.29
2022-08-02T02:09:57.413Z,17.28
2022-08-02T02:12:10.200Z,17.26
2022-08-02T02:12:13.875Z,17.27
2022-08-02T02:13:02.499Z,17.24
2022-08-02T02:14:04.095Z,17.24
2022-08-02T02:15:05.862Z,17.23
2022-08-02T02:16:07.613Z,17.22
2022-08-02T02:17:09.305Z,17.2
2022-08-02T02:18:13.753Z,17.19
2022-08-02T02:19:12.835Z,17.18
2022-08-02T02:20:14.553Z,17.17
2022-08-02T02:21:31.606Z,17.15
2022-08-02T02:22:17.969Z,17.15
2022-08-02T02:23:19.746Z,17.13
2022-08-02T02:24:21.604Z,17.12
2022-08-02T02:25:24.334Z,17.1
2022-08-02T02:26:27.623Z,17.09
2022-08-02T02:27:26.633Z,17.08
2022-08-02T02:28:28.338Z,17.07
2022-08-02T02:29:30.632Z,17.06
2022-08-02T02:30:36.763Z,17.05
2022-08-02T02:31:38.452Z,17.04
2022-08-02T02:32:40.227Z,17.03
2022-08-02T02:33:41.926Z,17.02
2022-08-02T02:34:43.682Z,17.02
2022-08-02T02:35:45.536Z,17.01
2022-08-02T02:36:47.113Z,17
2022-08-02T02:37:48.858Z,16.99
2022-08-02T02:38:50.601Z,16.98
2022-08-02T02:39:52.313Z,16.97
2022-08-02T02:40:54.076Z,16.97
2022-08-02T02:41:55.804Z,16.96
2022-08-02T02:42:57.525Z,16.95
2022-08-02T02:43:59.587Z,16.95
2022-08-02T02:45:01.172Z,16.95
2022-08-02T02:46:02.765Z,16.94
2022-08-02T02:47:04.624Z,16.94
2022-08-02T02:48:06.642Z,16.94
2022-08-02T02:49:07.990Z,16.95
2022-08-02T02:50:09.668Z,16.94
2022-08-02T02:51:21.422Z,16.96
2022-08-02T02:52:13.435Z,16.96
2022-08-02T02:53:14.879Z,16.96
2022-08-02T02:54:33.117Z,16.96
2022-08-02T02:55:18.455Z,16.98
2022-08-02T02:56:25.083Z,16.98
2022-08-02T02:57:21.812Z,16.99
2022-08-02T02:58:28.698Z,17
2022-08-02T02:59:25.280Z,17.01
2022-08-02T03:00:27.009Z,17.02
2022-08-02T03:01:55.069Z,17.02
2022-08-02T03:02:30.493Z,17.03
2022-08-02T03:03:32.266Z,17.04
2022-08-02T03:04:55.296Z,17.04
2022-08-02T03:05:35.683Z,17.04
2022-08-02T03:06:37.565Z,17.04
2022-08-02T03:07:39.291Z,17.04
2022-08-02T03:08:40.891Z,17.04
2022-08-02T03:09:42.626Z,17.04
2022-08-02T03:10:44.358Z,17.04
2022-08-02T03:11:46.112Z,17.04
2022-08-02T03:12:47.829Z,17.03
2022-08-02T03:13:49.565Z,17.03
2022-08-02T03:14:51.292Z,17.03
2022-08-02T03:15:53.036Z,17.03
2022-08-02T03:16:54.792Z,17.02
2022-08-02T03:17:56.505Z,17.02
2022-08-02T03:18:58.244Z,17.01
2022-08-02T03:20:00.145Z,17
2022-08-02T03:21:01.828Z,16.99
2022-08-02T03:22:03.579Z,16.98
2022-08-02T03:23:05.302Z,16.97
2022-08-02T03:24:06.898Z,16.95
2022-08-02T03:25:08.649Z,16.93
2022-08-02T03:26:25.785Z,16.93
2022-08-02T03:27:12.274Z,16.91
2022-08-02T03:28:13.928Z,16.9
2022-08-02T03:29:15.584Z,16.88
2022-08-02T03:30:17.449Z,16.87
2022-08-02T03:31:26.334Z,16.84
2022-08-02T03:32:20.806Z,16.83
2022-08-02T03:33:22.522Z,16.82
2022-08-02T03:34:24.270Z,16.8
2022-08-02T03:35:26.000Z,16.78
2022-08-02T03:36:27.728Z,16.77
2022-08-02T03:37:29.491Z,16.76
2022-08-02T03:38:31.386Z,16.74
2022-08-02T03:39:33.061Z,16.72
2022-08-02T03:40:34.740Z,16.71
2022-08-02T03:41:36.537Z,16.7
2022-08-02T03:42:38.149Z,16.69
2022-08-02T03:43:39.872Z,16.67
2022-08-02T03:44:41.609Z,16.66
2022-08-02T03:45:43.346Z,16.64
2022-08-02T03:46:45.077Z,16.63
2022-08-02T03:47:46.826Z,16.62
2022-08-02T03:48:48.544Z,16.61
2022-08-02T03:49:50.274Z,16.6
2022-08-02T03:50:52.063Z,16.58
2022-08-02T03:51:53.746Z,16.58
2022-08-02T03:52:55.503Z,16.57
2022-08-02T03:53:57.209Z,16.55
2022-08-02T03:54:59.017Z,16.54
2022-08-02T03:56:00.744Z,16.55
2022-08-02T03:57:02.452Z,16.54
2022-08-02T03:58:04.172Z,16.53
2022-08-02T03:59:05.889Z,16.54
2022-08-02T04:00:07.676Z,16.52
2022-08-02T04:01:09.540Z,16.5
2022-08-02T04:02:11.393Z,16.49
2022-08-02T04:03:12.852Z,16.47
2022-08-02T04:04:14.748Z,16.45
2022-08-02T04:05:16.358Z,16.43
2022-08-02T04:06:33.471Z,16.41
2022-08-02T04:08:32.570Z,16.4
2022-08-02T04:08:36.908Z,16.38
2022-08-02T04:09:23.357Z,16.36
2022-08-02T04:10:24.973Z,16.33
2022-08-02T04:11:26.714Z,16.32
2022-08-02T04:12:28.448Z,16.3
2022-08-02T04:13:34.421Z,16.29
2022-08-02T04:14:35.584Z,16.27
2022-08-02T04:15:33.786Z,16.24
2022-08-02T04:16:35.387Z,16.23
2022-08-02T04:17:37.192Z,16.21
2022-08-02T04:18:38.876Z,16.2
2022-08-02T04:19:40.587Z,16.18
2022-08-02T04:20:42.327Z,16.17
2022-08-02T04:21:51.516Z,16.16
2022-08-02T04:22:45.857Z,16.15
2022-08-02T04:23:47.549Z,16.14
2022-08-02T04:24:49.926Z,16.13
2022-08-02T04:25:51.470Z,16.12
2022-08-02T04:26:52.733Z,16.11
2022-08-02T04:28:17.260Z,16.1
2022-08-02T04:28:56.219Z,16.09
2022-08-02T04:29:57.938Z,16.08
2022-08-02T04:30:59.685Z,16.06
2022-08-02T04:32:01.403Z,16.05
2022-08-02T04:33:03.320Z,16.04
2022-08-02T04:34:05.023Z,16.02
2022-08-02T04:35:20.519Z,16.01
2022-08-02T04:36:31.302Z,16
2022-08-02T04:37:10.108Z,15.99
2022-08-02T04:38:11.953Z,15.98
2022-08-02T04:39:13.554Z,15.97
2022-08-02T04:40:15.287Z,15.97
2022-08-02T04:41:17.014Z,15.97
2022-08-02T04:42:18.883Z,15.98
2022-08-02T04:43:20.527Z,15.99
2022-08-02T04:44:22.238Z,16
2022-08-02T04:45:24.044Z,16.01
2022-08-02T04:46:28.887Z,16.03
2022-08-02T04:47:54.417Z,16.05
2022-08-02T04:48:29.180Z,16.08
2022-08-02T04:49:30.977Z,16.09
2022-08-02T04:50:32.635Z,16.11
2022-08-02T04:51:37.958Z,16.13
2022-08-02T04:52:36.235Z,16.16
2022-08-02T04:53:37.843Z,16.18
2022-08-02T04:54:39.615Z,16.21
2022-08-02T04:55:41.434Z,16.23
2022-08-02T04:56:43.050Z,16.25
2022-08-02T04:57:46.420Z,16.28
2022-08-02T04:58:46.509Z,16.31
2022-08-02T04:59:51.576Z,16.33
2022-08-02T05:00:50.149Z,16.36
2022-08-02T05:01:51.778Z,16.39
2022-08-02T05:02:53.459Z,16.41
2022-08-02T05:03:55.263Z,16.43
2022-08-02T05:04:56.934Z,16.45
2022-08-02T05:05:58.797Z,16.47
2022-08-02T05:07:00.703Z,16.48
2022-08-02T05:08:02.136Z,16.51
2022-08-02T05:09:03.911Z,16.52
2022-08-02T05:10:05.699Z,16.53
2022-08-02T05:11:07.463Z,16.54
2022-08-02T05:12:09.317Z,16.56
2022-08-02T05:13:10.917Z,16.57
2022-08-02T05:14:12.665Z,16.58
2022-08-02T05:15:14.277Z,16.6
2022-08-02T05:16:32.127Z,16.61
2022-08-02T05:17:17.755Z,16.61
2022-08-02T05:18:19.474Z,16.62
2022-08-02T05:19:21.223Z,16.63
2022-08-02T05:20:23.095Z,16.65
2022-08-02T05:21:32.105Z,16.65
2022-08-02T05:22:26.566Z,16.67
2022-08-02T05:23:28.146Z,16.68
2022-08-02T05:24:30.018Z,16.7
2022-08-02T05:25:31.631Z,16.71
2022-08-02T05:26:33.412Z,16.73
2022-08-02T05:27:35.183Z,16.75
2022-08-02T05:28:36.994Z,16.76
2022-08-02T05:29:38.703Z,16.78
2022-08-02T05:30:40.296Z,16.8
2022-08-02T05:31:42.175Z,16.82
2022-08-02T05:32:43.928Z,16.84
2022-08-02T05:33:45.623Z,16.87
2022-08-02T05:34:47.239Z,16.89
2022-08-02T05:35:48.960Z,16.92
2022-08-02T05:36:50.713Z,16.95
2022-08-02T05:37:52.597Z,16.98
2022-08-02T05:39:04.704Z,17.01
2022-08-02T05:39:56.431Z,17.02
2022-08-02T05:40:57.642Z,17.05
2022-08-02T05:41:59.451Z,17.07
2022-08-02T05:43:01.108Z,17.09
2022-08-02T05:44:02.970Z,17.11
2022-08-02T05:45:04.722Z,17.13
2022-08-02T05:46:06.334Z,17.14
2022-08-02T05:47:08.185Z,17.17
2022-08-02T05:48:09.829Z,17.19
2022-08-02T05:49:11.688Z,17.22
2022-08-02T05:50:13.308Z,17.24
2022-08-02T05:51:25.007Z,17.28
2022-08-02T05:52:16.913Z,17.32
2022-08-02T05:53:18.517Z,17.35
2022-08-02T05:54:20.381Z,17.39
2022-08-02T05:55:21.938Z,17.42
2022-08-02T05:56:24.200Z,17.46
2022-08-02T05:57:25.469Z,17.49
2022-08-02T05:58:27.257Z,17.52
2022-08-02T05:59:28.893Z,17.56
2022-08-02T06:00:30.605Z,17.6
2022-08-02T06:01:32.546Z,17.64
2022-08-02T06:02:34.077Z,17.71
2022-08-02T06:03:36.047Z,17.75
2022-08-02T06:04:37.660Z,17.79
2022-08-02T06:05:39.482Z,17.82
2022-08-02T06:06:41.001Z,17.85
2022-08-02T06:07:42.777Z,17.87
2022-08-02T06:08:47.791Z,17.9
2022-08-02T06:09:46.412Z,17.93
2022-08-02T06:10:48.013Z,17.95
2022-08-02T06:12:02.638Z,17.98
2022-08-02T06:12:51.428Z,18
2022-08-02T06:13:53.157Z,18.03
2022-08-02T06:14:54.881Z,18.05
2022-08-02T06:15:56.683Z,18.07
2022-08-02T06:16:58.493Z,18.1
2022-08-02T06:18:00.485Z,18.12
2022-08-02T06:19:01.972Z,18.14
2022-08-02T06:20:03.705Z,18.15
2022-08-02T06:22:32.444Z,18.17
2022-08-02T06:22:42.133Z,18.2
2022-08-02T06:23:12.030Z,18.24
2022-08-02T06:24:10.714Z,18.27
2022-08-02T06:25:51.238Z,18.37
2022-08-02T06:26:29.245Z,18.42
2022-08-02T06:27:15.780Z,18.5
2022-08-02T06:28:17.587Z,18.54
2022-08-02T06:29:19.169Z,18.61
2022-08-02T06:30:21.096Z,18.68
2022-08-02T06:31:25.692Z,18.74
2022-08-02T06:32:24.459Z,18.81
2022-08-02T06:33:26.126Z,18.9
2022-08-02T06:34:27.858Z,19
2022-08-02T06:35:29.713Z,19.07
2022-08-02T06:36:31.323Z,19.16
2022-08-02T06:37:33.167Z,19.27
2022-08-02T06:38:34.790Z,19.37
2022-08-02T06:39:36.521Z,19.48
2022-08-02T06:40:38.350Z,19.57
2022-08-02T06:41:40.118Z,19.67
2022-08-02T06:42:41.943Z,19.77
2022-08-02T06:43:43.604Z,19.87
2022-08-02T06:44:47.951Z,19.97
2022-08-02T06:45:46.927Z,20.04
2022-08-02T06:47:11.197Z,20.09
2022-08-02T06:47:50.401Z,20.16
2022-08-02T06:48:52.201Z,20.24
2022-08-02T06:49:54.852Z,20.31
2022-08-02T06:50:55.643Z,20.38
2022-08-02T06:51:57.346Z,20.43
2022-08-02T06:52:59.086Z,20.5
2022-08-02T06:54:01.037Z,20.55
2022-08-02T06:55:02.784Z,20.63
2022-08-02T06:56:04.354Z,20.7
2022-08-02T06:57:06.143Z,20.75
2022-08-02T06:58:07.792Z,20.8
2022-08-02T06:59:09.627Z,20.85
2022-08-02T07:00:11.404Z,20.89
2022-08-02T07:01:18.146Z,20.92
2022-08-02T07:02:14.948Z,20.99
2022-08-02T07:03:16.438Z,21.03
2022-08-02T07:04:20.268Z,21.1
2022-08-02T07:05:20.024Z,21.18
2022-08-02T07:06:21.622Z,21.24
2022-08-02T07:07:23.432Z,21.33
2022-08-02T07:08:25.210Z,21.4
2022-08-02T07:09:26.830Z,21.5
2022-08-02T07:10:28.561Z,21.6
2022-08-02T07:11:30.309Z,21.67
2022-08-02T07:12:32.078Z,21.78
2022-08-02T07:13:36.776Z,21.86
2022-08-02T07:14:35.531Z,21.94
2022-08-02T07:15:37.292Z,22.01
2022-08-02T07:16:38.967Z,22.09
2022-08-02T07:17:40.712Z,22.14
2022-08-02T07:18:42.422Z,22.16
2022-08-02T07:19:44.172Z,22.22
2022-08-02T07:20:45.940Z,22.23
2022-08-02T07:21:57.570Z,22.26
2022-08-02T07:22:49.383Z,22.32
2022-08-02T07:23:51.113Z,22.34
2022-08-02T07:24:52.847Z,22.39
2022-08-02T07:26:02.868Z,22.44
2022-08-02T07:27:10.660Z,22.5
2022-08-02T07:27:58.072Z,22.54
2022-08-02T07:28:59.791Z,22.62
2022-08-02T07:30:01.657Z,22.67
2022-08-02T07:31:03.250Z,22.75
2022-08-02T07:32:04.983Z,22.8
2022-08-02T07:33:06.810Z,22.85
2022-08-02T07:34:08.462Z,22.91
2022-08-02T07:35:10.186Z,22.93
2022-08-02T07:36:27.391Z,22.98
2022-08-02T07:37:25.592Z,23.02
2022-08-02T07:38:15.414Z,23.09
2022-08-02T07:39:17.166Z,23.14
2022-08-02T07:40:20.150Z,23.2
2022-08-02T07:41:21.694Z,23.26
2022-08-02T07:42:22.350Z,23.32
2022-08-02T07:43:24.135Z,23.36
2022-08-02T07:44:25.804Z,23.41
2022-08-02T07:45:27.637Z,23.47
2022-08-02T07:46:29.266Z,23.53
2022-08-02T07:47:31.011Z,23.57
2022-08-02T07:48:32.754Z,23.6
2022-08-02T07:49:34.539Z,23.65
2022-08-02T07:50:36.205Z,23.69
2022-08-02T07:51:37.949Z,23.72
2022-08-02T07:52:39.799Z,23.74
2022-08-02T07:53:51.344Z,23.77
2022-08-02T07:54:43.139Z,23.8
2022-08-02T07:55:44.970Z,23.79
2022-08-02T07:56:46.694Z,23.8
2022-08-02T07:57:48.356Z,23.83
2022-08-02T07:58:50.098Z,23.85
2022-08-02T07:59:51.819Z,23.88
2022-08-02T08:00:53.557Z,23.91
2022-08-02T08:01:55.358Z,23.96
2022-08-02T08:02:58.919Z,24.01
2022-08-02T08:03:58.906Z,24.06
2022-08-02T08:05:00.491Z,24.09
2022-08-02T08:06:02.253Z,24.16
2022-08-02T08:07:04.081Z,24.19
2022-08-02T08:08:05.695Z,24.24
2022-08-02T08:09:07.449Z,24.25
2022-08-02T08:10:09.169Z,24.29
2022-08-02T08:11:26.331Z,24.29
2022-08-02T08:12:13.019Z,24.33
2022-08-02T08:13:14.385Z,24.34
2022-08-02T08:14:16.836Z,24.33
2022-08-02T08:15:17.843Z,24.32
2022-08-02T08:16:19.715Z,24.33
2022-08-02T08:17:21.331Z,24.37
2022-08-02T08:18:23.050Z,24.39
2022-08-02T08:19:36.480Z,24.42
2022-08-02T08:20:26.518Z,24.46
2022-08-02T08:21:28.249Z,24.5
2022-08-02T08:22:30.016Z,24.56
2022-08-02T08:23:31.729Z,24.62
2022-08-02T08:24:33.467Z,24.69
2022-08-02T08:25:41.286Z,24.73
2022-08-02T08:26:36.933Z,24.78
2022-08-02T08:27:38.748Z,24.84
2022-08-02T08:28:40.391Z,24.91
2022-08-02T08:29:42.144Z,25.02
2022-08-02T08:30:43.876Z,25.16
2022-08-02T08:31:45.592Z,25.27
2022-08-02T08:32:47.354Z,25.35
2022-08-02T08:33:49.087Z,25.41
2022-08-02T08:34:50.883Z,25.48
2022-08-02T08:35:52.562Z,25.54
2022-08-02T08:36:54.275Z,25.58
2022-08-02T08:37:56.014Z,25.64
2022-08-02T08:38:57.756Z,25.68
2022-08-02T08:39:59.480Z,25.72
2022-08-02T08:41:01.212Z,25.76
2022-08-02T08:42:02.942Z,25.78
2022-08-02T08:43:04.706Z,25.82
2022-08-02T08:44:06.566Z,25.83
2022-08-02T08:45:08.160Z,25.87
2022-08-02T08:46:12.928Z,25.9
2022-08-02T08:47:11.628Z,25.92
2022-08-02T08:48:13.397Z,25.96
2022-08-02T08:49:15.134Z,25.98
2022-08-02T08:50:21.309Z,26.03
2022-08-02T08:51:25.818Z,26.07
2022-08-02T08:52:20.329Z,26.13
2022-08-02T08:53:22.073Z,26.15
2022-08-02T08:54:24.017Z,26.17
2022-08-02T08:55:25.508Z,26.14
2022-08-02T08:56:27.238Z,26.14
2022-08-02T08:57:28.973Z,26.15
2022-08-02T08:58:30.775Z,26.16
2022-08-02T08:59:32.498Z,26.16
2022-08-02T09:00:34.186Z,26.16
2022-08-02T09:01:50.469Z,26.16
2022-08-02T09:02:37.657Z,26.18
2022-08-02T09:03:39.403Z,26.23
2022-08-02T09:04:41.132Z,26.27
2022-08-02T09:05:42.848Z,26.32
2022-08-02T09:06:44.716Z,26.36
2022-08-02T09:07:46.328Z,26.39
2022-08-02T09:08:48.082Z,26.41
2022-08-02T09:09:49.816Z,26.43
2022-08-02T09:10:51.533Z,26.43
2022-08-02T09:11:53.268Z,26.45
2022-08-02T09:12:54.984Z,26.42
2022-08-02T09:13:56.725Z,26.39
2022-08-02T09:14:58.465Z,26.28
2022-08-02T09:16:11.372Z,26.33
2022-08-02T09:17:02.098Z,26.33
2022-08-02T09:18:03.681Z,26.34
2022-08-02T09:19:07.795Z,26.31
2022-08-02T09:20:07.134Z,26.32
2022-08-02T09:21:18.894Z,26.32
2022-08-02T09:22:11.177Z,26.35
2022-08-02T09:23:12.338Z,26.38
2022-08-02T09:24:14.088Z,26.39
2022-08-02T09:25:15.812Z,26.37
2022-08-02T09:26:17.558Z,26.39
2022-08-02T09:27:19.289Z,26.42
2022-08-02T09:28:21.035Z,26.44
2022-08-02T09:29:22.899Z,26.47
2022-08-02T09:30:24.809Z,26.48
2022-08-02T09:31:26.261Z,26.48
2022-08-02T09:32:27.950Z,26.53
2022-08-02T09:33:29.696Z,26.55
2022-08-02T09:34:31.440Z,26.58
2022-08-02T09:36:06.665Z,26.61
2022-08-02T09:36:34.894Z,26.63
2022-08-02T09:37:36.634Z,26.66
2022-08-02T09:38:38.494Z,26.66
2022-08-02T09:39:40.112Z,26.68
2022-08-02T09:40:42.137Z,26.69
2022-08-02T09:41:43.699Z,26.7
2022-08-02T09:42:45.298Z,26.7
2022-08-02T09:44:03.748Z,26.66
2022-08-02T09:44:49.788Z,26.68
2022-08-02T09:45:50.515Z,26.69
2022-08-02T09:46:52.251Z,26.68
2022-08-02T09:47:53.990Z,26.64
2022-08-02T09:48:55.792Z,26.64
2022-08-02T09:49:57.445Z,26.68
2022-08-02T09:50:59.200Z,26.68
2022-08-02T09:52:00.915Z,26.65
2022-08-02T09:53:02.648Z,26.64
2022-08-02T09:54:09.029Z,26.63
2022-08-02T09:55:06.130Z,26.63
2022-08-02T09:56:30.198Z,26.65
2022-08-02T09:57:09.590Z,26.69
2022-08-02T09:58:11.332Z,26.66
2022-08-02T09:59:13.073Z,26.71
2022-08-02T10:00:23.260Z,26.73
2022-08-02T10:01:35.567Z,26.78
2022-08-02T10:02:18.280Z,26.78
2022-08-02T10:03:22.188Z,26.83
2022-08-02T10:04:22.773Z,26.87
2022-08-02T10:05:23.487Z,26.9
2022-08-02T10:06:25.275Z,26.94
2022-08-02T10:07:26.947Z,26.96
2022-08-02T10:08:28.721Z,27.02
2022-08-02T10:09:30.428Z,27.07
2022-08-02T10:10:32.360Z,27.15
2022-08-02T10:11:33.905Z,27.18
2022-08-02T10:12:35.605Z,27.26
2022-08-02T10:13:37.350Z,27.32
2022-08-02T10:14:39.083Z,27.35
2022-08-02T10:15:50.190Z,27.4
2022-08-02T10:16:42.549Z,27.46
2022-08-02T10:17:44.343Z,27.53
2022-08-02T10:18:46.022Z,27.6
2022-08-02T10:20:00.825Z,27.64
2022-08-02T10:20:49.597Z,27.75
2022-08-02T10:21:51.232Z,27.79
2022-08-02T10:22:52.980Z,27.85
2022-08-02T10:23:54.702Z,27.92
2022-08-02T10:24:56.583Z,28.02
2022-08-02T10:25:58.197Z,28.04
2022-08-02T10:26:59.910Z,28.08
2022-08-02T10:28:05.503Z,28.16
2022-08-02T10:29:03.375Z,28.16
2022-08-02T10:30:05.275Z,28.14
2022-08-02T10:31:21.887Z,28.19
2022-08-02T10:32:09.021Z,28.22
2022-08-02T10:33:10.316Z,28.26
2022-08-02T10:34:12.047Z,28.29
2022-08-02T10:35:18.391Z,28.33
2022-08-02T10:36:18.544Z,28.36
2022-08-02T10:37:17.271Z,28.38
2022-08-02T10:38:18.982Z,28.4
2022-08-02T10:39:20.712Z,28.33
2022-08-02T10:40:22.449Z,28.38
2022-08-02T10:41:24.183Z,28.4
2022-08-02T10:42:26.038Z,28.47
2022-08-02T10:43:27.656Z,28.48
2022-08-02T10:44:29.394Z,28.49
2022-08-02T10:45:31.121Z,28.5
2022-08-02T10:46:32.884Z,28.52
2022-08-02T10:47:34.622Z,28.5
2022-08-02T10:48:36.332Z,28.49
2022-08-02T10:49:40.142Z,28.52
2022-08-02T10:50:39.793Z,28.49
2022-08-02T10:51:41.532Z,28.42
2022-08-02T10:52:43.311Z,28.41
2022-08-02T10:53:45.016Z,28.44
2022-08-02T10:54:46.747Z,28.46
2022-08-02T10:55:48.470Z,28.48
2022-08-02T10:56:50.193Z,28.48
2022-08-02T10:57:51.931Z,28.52
2022-08-02T10:58:53.700Z,28.56
2022-08-02T10:59:55.417Z,28.61
2022-08-02T11:00:57.187Z,28.63
2022-08-02T11:02:00.820Z,28.67
2022-08-02T11:03:00.613Z,28.72
2022-08-02T11:04:05.006Z,28.74
2022-08-02T11:05:04.082Z,28.76
2022-08-02T11:06:05.817Z,28.75
2022-08-02T11:07:07.558Z,28.75
2022-08-02T11:08:09.284Z,28.71
2022-08-02T11:09:11.038Z,28.67
2022-08-02T11:10:12.756Z,28.65
2022-08-02T11:11:54.162Z,28.62
2022-08-02T11:12:16.415Z,28.58
2022-08-02T11:13:18.003Z,28.6
2022-08-02T11:14:19.697Z,28.41
2022-08-02T11:15:21.422Z,28.44
2022-08-02T11:16:23.226Z,28.48
2022-08-02T11:17:24.903Z,28.48
2022-08-02T11:18:26.625Z,28.51
2022-08-02T11:19:28.389Z,28.54
2022-08-02T11:20:30.112Z,28.55
2022-08-02T11:21:31.888Z,28.6
2022-08-02T11:22:33.570Z,28.62
2022-08-02T11:23:44.897Z,28.66
2022-08-02T11:24:37.065Z,28.67
2022-08-02T11:26:02.767Z,28.73
2022-08-02T11:26:40.503Z,28.72
2022-08-02T11:27:42.247Z,28.74
2022-08-02T11:28:44.088Z,28.77
2022-08-02T11:29:45.733Z,28.76
2022-08-02T11:30:47.683Z,28.81
2022-08-02T11:31:49.495Z,28.81
2022-08-02T11:32:51.065Z,28.87
2022-08-02T11:33:52.659Z,28.89
2022-08-02T11:34:54.437Z,28.92
2022-08-02T11:35:57.373Z,28.91
2022-08-02T11:36:57.851Z,28.93
2022-08-02T11:37:59.602Z,28.94
2022-08-02T11:39:01.323Z,28.94
2022-08-02T11:40:03.065Z,28.91
2022-08-02T11:41:06.125Z,28.9
2022-08-02T11:42:06.552Z,28.91
2022-08-02T11:43:08.256Z,28.93
2022-08-02T11:44:09.988Z,28.94
2022-08-02T11:45:11.779Z,28.92
2022-08-02T11:46:16.470Z,28.98
2022-08-02T11:47:15.207Z,28.99
2022-08-02T11:48:16.954Z,29.03
2022-08-02T11:49:18.993Z,29.05
2022-08-02T11:50:20.482Z,29.06
2022-08-02T11:51:25.143Z,29.05
2022-08-02T11:52:23.969Z,29.04
2022-08-02T11:53:25.662Z,29.03
2022-08-02T11:54:27.340Z,29.03
2022-08-02T11:55:29.090Z,29.04
2022-08-02T11:56:30.786Z,29.05
2022-08-02T11:58:03.272Z,29.06
2022-08-02T11:58:34.287Z,29.08
2022-08-02T11:59:36.017Z,29.09
2022-08-02T12:00:38.055Z,29.13
2022-08-02T12:01:45.865Z,29.15
2022-08-02T12:02:41.195Z,29.19
2022-08-02T12:03:42.990Z,29.22
2022-08-02T12:04:44.874Z,29.2
2022-08-02T12:06:05.454Z,29.22
2022-08-02T12:06:48.139Z,29.22
2022-08-02T12:07:49.886Z,29.26
2022-08-02T12:08:54.606Z,29.28
2022-08-02T12:09:53.343Z,29.29
2022-08-02T12:10:55.164Z,29.31
2022-08-02T12:11:56.812Z,29.31
2022-08-02T12:12:58.563Z,29.34
2022-08-02T12:14:00.312Z,29.34
2022-08-02T12:15:02.291Z,29.36
2022-08-02T12:16:19.193Z,29.4
2022-08-02T12:17:05.568Z,29.41
2022-08-02T12:18:07.223Z,29.4
2022-08-02T12:19:09.053Z,29.36
2022-08-02T12:20:10.705Z,29.35
2022-08-02T12:21:12.530Z,29.37
2022-08-02T12:22:14.393Z,29.36
2022-08-02T12:23:15.908Z,29.36
2022-08-02T12:24:17.659Z,29.36
2022-08-02T12:25:33.257Z,29.32
2022-08-02T12:26:21.109Z,29.33
2022-08-02T12:27:22.958Z,29.32
2022-08-02T12:28:24.575Z,29.24
2022-08-02T12:29:58.352Z,29.24
2022-08-02T12:30:28.052Z,29.24
2022-08-02T12:31:29.795Z,29.25
2022-08-02T12:32:31.523Z,29.25
2022-08-02T12:33:36.531Z,29.26
2022-08-02T12:34:35.008Z,29.26
2022-08-02T12:35:36.715Z,29.28
2022-08-02T12:36:38.454Z,29.28
2022-08-02T12:37:40.198Z,29.3
2022-08-02T12:38:41.916Z,29.29
2022-08-02T12:39:43.669Z,29.33
2022-08-02T12:40:45.387Z,29.36
2022-08-02T12:41:54.897Z,29.39
2022-08-02T12:42:48.929Z,29.41
2022-08-02T12:43:50.608Z,29.45
2022-08-02T12:44:52.346Z,29.46
2022-08-02T12:45:54.070Z,29.47
2022-08-02T12:46:55.798Z,29.47
2022-08-02T12:47:57.538Z,29.48
2022-08-02T12:50:01.077Z,29.29
2022-08-02T12:51:02.746Z,29.33
2022-08-02T12:52:06.822Z,29.29
2022-08-02T12:53:06.213Z,29.26
2022-08-02T12:54:08.087Z,29.27
2022-08-02T12:55:09.691Z,29.28
2022-08-02T12:56:14.463Z,29.18
2022-08-02T12:57:13.282Z,29.13
2022-08-02T12:58:14.954Z,29.16
2022-08-02T12:59:16.642Z,29.12
2022-08-02T13:00:18.468Z,29.11
2022-08-02T13:01:20.391Z,29.08
2022-08-02T13:02:21.996Z,29.06
2022-08-02T13:04:09.271Z,29.05
2022-08-02T13:04:25.330Z,29.03
2022-08-02T13:05:27.030Z,29.03
2022-08-02T13:06:40.836Z,29.06
2022-08-02T13:07:30.501Z,29.08
2022-08-02T13:08:32.223Z,29.07
2022-08-02T13:09:33.990Z,29.1
2022-08-02T13:10:35.830Z,29.13
2022-08-02T13:11:37.502Z,29.13
2022-08-02T13:12:39.236Z,29.16
2022-08-02T13:13:40.911Z,29.17
2022-08-02T13:14:42.967Z,29.19
2022-08-02T13:15:49.297Z,29.21
2022-08-02T13:16:46.117Z,29.14
2022-08-02T13:17:47.927Z,29.12
2022-08-02T13:18:49.564Z,29.17